Time;durP1;ratioP1;P1;durP2;ratioP2;P2;SDS_P1;SDS_P2;PMS_P1;PMS_P2;Temp;Humidity;BMP_temperature;BMP_pressure;BME280_temperature;BME280_humidity;BME280_pressure;Samples;Min_cycle;Max_cycle;Signal;HPM_P1;HPM_P2
2022/04/19 00:00:44;;;;;;;23.43;13.23;;;4.00;99.90;;;;;;5024763;28;20661;-84
2022/04/19 00:03:11;;;;;;;15.40;8.90;;;3.90;99.90;;;;;;5023736;28;20225;-84
2022/04/19 00:05:38;;;;;;;10.47;5.37;;;3.80;99.90;;;;;;5023332;28;20418;-83
2022/04/19 00:08:05;;;;;;;5.53;3.53;;;3.70;99.90;;;;;;5023619;28;20266;-83
2022/04/19 00:10:32;;;;;;;4.87;3.47;;;3.60;99.90;;;;;;5025089;28;20171;-84
2022/04/19 00:13:01;;;;;;;3.90;3.07;;;3.60;99.90;;;;;;5024129;28;20585;-83
2022/04/19 00:15:29;;;;;;;5.07;3.40;;;3.60;99.90;;;;;;5025269;28;20689;-84
2022/04/19 00:17:57;;;;;;;7.20;2.90;;;3.50;99.90;;;;;;5024588;28;20270;-84
2022/04/19 00:20:24;;;;;;;3.13;2.70;;;3.50;99.90;;;;;;5027942;28;20195;-83
2022/04/19 00:22:50;;;;;;;4.33;3.23;;;3.60;99.90;;;;;;5037533;28;20170;-82
2022/04/19 00:25:16;;;;;;;5.03;3.00;;;3.60;99.90;;;;;;5025651;28;20254;-83
2022/04/19 00:27:42;;;;;;;4.40;3.37;;;3.50;99.90;;;;;;5021511;28;20414;-83
2022/04/19 00:30:09;;;;;;;4.03;3.43;;;3.30;99.90;;;;;;5021395;28;20429;-83
2022/04/19 00:32:35;;;;;;;4.20;3.20;;;3.30;99.90;;;;;;5022320;28;20199;-84
2022/04/19 00:35:02;;;;;;;3.77;3.37;;;3.10;99.90;;;;;;5022118;28;20182;-83
2022/04/19 00:37:28;;;;;;;4.97;2.87;;;3.20;99.90;;;;;;5023847;28;20218;-83
2022/04/19 00:39:57;;;;;;;3.40;2.97;;;3.10;99.90;;;;;;5023844;28;20425;-83
2022/04/19 00:42:28;;;;;;;4.30;3.03;;;3.10;99.90;;;;;;5021603;28;20222;-83
2022/04/19 00:44:55;;;;;;;6.20;3.80;;;3.10;99.90;;;;;;5021127;28;20871;-83
2022/04/19 00:47:20;;;;;;;4.73;3.27;;;3.10;99.90;;;;;;5021385;28;20182;-83
2022/04/19 00:49:47;;;;;;;3.57;2.97;;;3.00;99.90;;;;;;5021018;28;20175;-83
2022/04/19 00:52:12;;;;;;;4.13;2.73;;;3.00;99.90;;;;;;5022788;28;20221;-85
2022/04/19 00:54:38;;;;;;;3.77;2.70;;;3.00;99.90;;;;;;5021967;28;20426;-83
2022/04/19 00:57:04;;;;;;;4.40;2.90;;;3.00;99.90;;;;;;5021363;28;20182;-83
2022/04/19 00:59:32;;;;;;;3.80;3.17;;;;;;;;;;5022221;28;20212;-83
2022/04/19 01:01:58;;;;;;;3.53;2.80;;;2.80;99.90;;;;;;5022658;28;20475;-83
2022/04/19 01:04:23;;;;;;;5.20;3.47;;;2.90;99.90;;;;;;5022156;28;20493;-83
2022/04/19 01:06:50;;;;;;;3.93;2.87;;;3.80;99.90;;;;;;5023207;28;20170;-83
2022/04/19 01:09:15;;;;;;;3.00;2.47;;;2.80;99.90;;;;;;5023522;28;20222;-83
2022/04/19 01:14:27;;;;;;;5.73;2.80;;;2.80;99.90;;;;;;5035344;28;20154;-82
2022/04/19 01:16:54;;;;;;;3.40;2.50;;;2.80;99.90;;;;;;5032146;28;20496;-82
2022/04/19 01:19:21;;;;;;;4.30;2.90;;;2.80;99.90;;;;;;5023345;28;20498;-82
2022/04/19 01:21:48;;;;;;;3.60;2.60;;;2.80;99.90;;;;;;5023864;28;20230;-82
2022/04/19 01:24:16;;;;;;;3.90;2.47;;;2.80;99.90;;;;;;5024078;28;20415;-81
2022/04/19 01:26:42;;;;;;;4.07;2.27;;;2.70;99.90;;;;;;5024411;28;20182;-82
2022/04/19 01:29:09;;;;;;;4.63;2.53;;;2.70;99.90;;;;;;5023333;28;20179;-82
2022/04/19 01:31:36;;;;;;;3.47;2.97;;;2.70;99.90;;;;;;5024143;28;20269;-82
2022/04/19 01:34:02;;;;;;;2.73;2.50;;;2.70;99.90;;;;;;5023392;28;20625;-82
2022/04/19 01:36:28;;;;;;;7.70;2.70;;;2.60;99.90;;;;;;5021872;28;20421;-82
2022/04/19 01:38:53;;;;;;;4.07;3.07;;;2.50;99.90;;;;;;5023132;28;20198;-82
2022/04/19 01:41:19;;;;;;;3.17;2.03;;;2.50;99.90;;;;;;5023108;28;20210;-82
2022/04/19 01:43:45;;;;;;;3.53;2.40;;;2.50;99.90;;;;;;5022421;28;20187;-82
2022/04/19 01:46:11;;;;;;;2.77;2.17;;;2.50;99.90;;;;;;5022688;28;20266;-82
2022/04/19 01:48:36;;;;;;;3.60;2.17;;;2.50;99.90;;;;;;5022598;28;20182;-82
2022/04/19 01:51:02;;;;;;;4.33;2.57;;;2.50;99.90;;;;;;5021820;28;21410;-82
2022/04/19 01:53:28;;;;;;;3.17;2.60;;;;;;;;;;5023090;28;20171;-82
2022/04/19 01:55:55;;;;;;;4.67;2.50;;;2.40;99.90;;;;;;5023424;28;20237;-82
2022/04/19 01:58:21;;;;;;;5.23;2.30;;;;;;;;;;5023432;28;20410;-82
2022/04/19 02:00:46;;;;;;;2.27;2.00;;;2.40;99.90;;;;;;5023506;28;20465;-82
2022/04/19 02:03:12;;;;;;;6.37;2.87;;;2.50;99.90;;;;;;5028131;28;20182;-81
2022/04/19 02:05:38;;;;;;;3.17;2.10;;;2.50;99.90;;;;;;5025548;28;20178;-81
2022/04/19 02:08:03;;;;;;;2.60;2.20;;;2.80;99.90;;;;;;5025899;28;20684;-81
2022/04/19 02:10:29;;;;;;;3.67;2.57;;;2.30;99.90;;;;;;5023974;28;20206;-82
2022/04/19 02:12:55;;;;;;;2.10;1.87;;;2.30;99.90;;;;;;5025708;28;20228;-82
2022/04/19 02:15:21;;;;;;;3.10;2.40;;;2.30;99.90;;;;;;5024254;28;20189;-82
2022/04/19 02:17:48;;;;;;;4.80;2.50;;;2.30;99.90;;;;;;5024348;28;20182;-82
2022/04/19 02:20:16;;;;;;;3.17;2.50;;;2.40;99.90;;;;;;5024421;28;20228;-82
2022/04/19 02:22:42;;;;;;;2.93;2.13;;;2.50;99.90;;;;;;5025052;28;20452;-82
2022/04/19 02:25:09;;;;;;;3.90;2.47;;;2.70;99.90;;;;;;5026114;28;20425;-83
2022/04/19 02:27:35;;;;;;;3.47;2.60;;;2.40;99.90;;;;;;5025579;28;20413;-82
2022/04/19 02:30:05;;;;;;;3.07;2.40;;;2.40;99.90;;;;;;5024582;28;20405;-82
2022/04/19 02:32:33;;;;;;;2.20;1.80;;;2.50;99.90;;;;;;5025851;28;20195;-82
2022/04/19 02:34:59;;;;;;;4.53;3.07;;;2.40;99.90;;;;;;5026246;28;20414;-82
2022/04/19 02:37:27;;;;;;;3.83;2.30;;;;;;;;;;5024017;28;20536;-82
2022/04/19 02:39:53;;;;;;;3.30;2.37;;;2.40;99.90;;;;;;5024689;28;20448;-82
2022/04/19 02:42:19;;;;;;;3.10;2.27;;;;;;;;;;5025532;28;20207;-82
2022/04/19 02:44:45;;;;;;;4.77;2.60;;;;;;;;;;5023820;28;20177;-82
2022/04/19 02:47:11;;;;;;;3.17;2.40;;;2.40;99.90;;;;;;5025642;28;20414;-82
2022/04/19 02:49:37;;;;;;;3.33;2.43;;;2.40;99.90;;;;;;5028210;28;20183;-82
2022/04/19 02:52:03;;;;;;;3.20;2.07;;;2.40;99.90;;;;;;5036647;28;20198;-82
2022/04/19 02:54:29;;;;;;;5.20;2.07;;;;;;;;;;5034879;28;20254;-81
2022/04/19 02:56:57;;;;;;;2.37;2.17;;;;;;;;;;5033693;28;20434;-81
2022/04/19 02:59:23;;;;;;;3.20;2.67;;;;;;;;;;5023823;28;20410;-82
2022/04/19 03:01:49;;;;;;;3.50;2.07;;;2.30;99.90;;;;;;5024550;28;20453;-82
2022/04/19 03:04:15;;;;;;;3.07;2.37;;;;;;;;;;5023078;28;20175;-82
2022/04/19 03:06:41;;;;;;;4.10;2.20;;;2.30;99.90;;;;;;5022778;28;20267;-81
2022/04/19 03:09:07;;;;;;;4.40;2.63;;;;;;;;;;5023489;28;20584;-82
2022/04/19 03:11:33;;;;;;;2.60;2.13;;;;;;;;;;5025522;28;20461;-82
2022/04/19 03:13:59;;;;;;;4.67;2.30;;;;;;;;;;5025577;28;20417;-82
2022/04/19 03:16:25;;;;;;;2.63;2.10;;;2.20;99.90;;;;;;5026680;28;20413;-82
2022/04/19 03:18:51;;;;;;;3.00;2.20;;;2.20;99.90;;;;;;5025210;28;20496;-82
2022/04/19 03:21:16;;;;;;;4.23;2.47;;;2.20;99.90;;;;;;5025032;28;20213;-82
2022/04/19 03:29:12;;;;;;;2.60;2.17;;;1.80;99.90;;;;;;5025176;28;20440;-82
2022/04/19 03:31:38;;;;;;;6.80;2.20;;;;;;;;;;5023972;28;20941;-82
2022/04/19 03:34:05;;;;;;;3.53;2.20;;;1.80;99.90;;;;;;5022876;28;20210;-82
2022/04/19 03:36:31;;;;;;;2.93;1.83;;;;;;;;;;5024382;28;20197;-81
2022/04/19 03:38:58;;;;;;;3.23;2.60;;;;;;;;;;5023564;28;20425;-82
2022/04/19 03:41:24;;;;;;;3.20;2.30;;;;;;;;;;5022768;28;20556;-81
2022/04/19 03:43:53;;;;;;;4.17;3.03;;;;;;;;;;5022904;28;20414;-82
2022/04/19 03:46:20;;;;;;;3.30;2.27;;;;;;;;;;5023156;28;20406;-81
2022/04/19 03:48:46;;;;;;;3.70;2.60;;;1.80;99.90;;;;;;5022058;28;20436;-81
2022/04/19 03:51:12;;;;;;;4.07;2.13;;;;;;;;;;5024723;28;20476;-81
2022/04/19 03:53:38;;;;;;;9.57;3.80;;;1.80;99.90;;;;;;5021165;28;20461;-81
2022/04/19 03:56:04;;;;;;;12.13;4.80;;;1.80;99.90;;;;;;5022863;28;20215;-81
2022/04/19 03:58:32;;;;;;;7.30;3.87;;;1.70;99.90;;;;;;5022002;28;20183;-83
2022/04/19 04:00:58;;;;;;;5.07;3.10;;;;;;;;;;5022845;28;20853;-83
2022/04/19 04:03:24;;;;;;;4.60;2.33;;;1.70;99.90;;;;;;5023829;28;20761;-82
2022/04/19 04:05:50;;;;;;;3.00;2.30;;;1.70;99.90;;;;;;5023522;28;20189;-82
2022/04/19 04:08:16;;;;;;;3.87;2.27;;;1.80;99.90;;;;;;5023109;28;20183;-82
2022/04/19 04:10:42;;;;;;;3.87;2.50;;;1.70;99.90;;;;;;5023977;28;20207;-83
2022/04/19 04:13:09;;;;;;;2.87;2.17;;;1.50;99.90;;;;;;5023646;28;20194;-82
2022/04/19 04:15:35;;;;;;;3.63;2.03;;;1.70;99.90;;;;;;5025152;28;20171;-82
2022/04/19 04:18:01;;;;;;;2.80;2.20;;;1.60;99.90;;;;;;5024340;28;21005;-82
2022/04/19 04:20:26;;;;;;;2.70;2.00;;;1.60;99.90;;;;;;5024209;28;20453;-82
2022/04/19 04:22:52;;;;;;;6.07;2.67;;;1.50;99.90;;;;;;5023108;28;20178;-82
2022/04/19 04:25:18;;;;;;;1.83;1.73;;;1.40;99.90;;;;;;5023918;28;20189;-82
2022/04/19 04:27:43;;;;;;;2.60;2.37;;;1.40;99.90;;;;;;5024802;28;20258;-82
2022/04/19 04:30:09;;;;;;;4.07;2.30;;;3.10;99.90;;;;;;5024053;28;20183;-81
2022/04/19 04:32:35;;;;;;;3.73;2.23;;;1.40;99.90;;;;;;5023726;28;20226;-81
2022/04/19 04:35:01;;;;;;;2.93;1.90;;;3.30;99.90;;;;;;5025258;28;20167;-82
2022/04/19 04:37:26;;;;;;;4.43;2.60;;;1.60;99.90;;;;;;5019076;28;20190;-83
2022/04/19 04:39:52;;;;;;;2.90;2.50;;;1.40;99.90;;;;;;5020592;28;20174;-83
2022/04/19 04:42:18;;;;;;;2.87;2.37;;;1.40;99.90;;;;;;5024033;28;20293;-83
2022/04/19 04:44:44;;;;;;;3.97;2.40;;;3.00;99.90;;;;;;5024318;28;20175;-82
2022/04/19 04:49:58;;;;;;;4.10;2.43;;;2.60;99.90;;;;;;5024402;28;20190;-82
2022/04/19 04:52:23;;;;;;;3.13;2.43;;;1.60;99.90;;;;;;5024973;28;20433;-83
2022/04/19 04:54:49;;;;;;;3.60;2.17;;;2.00;99.90;;;;;;5021818;28;20615;-83
2022/04/19 04:57:15;;;;;;;3.30;2.27;;;2.10;99.90;;;;;;5021393;28;20178;-83
2022/04/19 04:59:41;;;;;;;2.87;2.23;;;1.70;99.90;;;;;;5021859;28;20544;-84
2022/04/19 05:02:07;;;;;;;4.00;2.47;;;;;;;;;;5021975;28;20214;-84
2022/04/19 05:04:33;;;;;;;5.37;2.30;;;1.70;99.90;;;;;;5022561;28;20178;-84
2022/04/19 05:06:59;;;;;;;3.07;2.50;;;1.80;99.90;;;;;;5030469;28;20409;-83
2022/04/19 05:09:25;;;;;;;2.70;2.20;;;1.90;99.90;;;;;;5035616;28;20482;-83
2022/04/19 05:11:52;;;;;;;2.53;2.33;;;2.00;99.90;;;;;;5036281;28;20206;-82
2022/04/19 05:14:18;;;;;;;5.13;2.80;;;;;;;;;;5027059;28;20175;-83
2022/04/19 05:16:45;;;;;;;3.10;2.43;;;;;;;;;;5020896;28;20414;-83
2022/04/19 05:19:11;;;;;;;4.90;3.20;;;2.40;99.90;;;;;;5020668;28;20516;-82
2022/04/19 05:21:40;;;;;;;9.67;2.80;;;;;;;;;;5021260;28;20477;-83
2022/04/19 05:24:08;;;;;;;3.57;2.43;;;2.50;99.90;;;;;;5023168;28;20434;-83
2022/04/19 05:26:34;;;;;;;2.60;2.33;;;2.70;99.90;;;;;;5021518;28;20237;-83
2022/04/19 05:29:00;;;;;;;3.10;2.57;;;;;;;;;;5022429;28;20488;-83
2022/04/19 05:31:26;;;;;;;3.47;2.40;;;;;;;;;;5019771;28;20433;-84
2022/04/19 05:33:52;;;;;;;5.20;2.37;;;3.00;99.90;;;;;;5019207;28;20430;-84
2022/04/19 05:36:18;;;;;;;3.13;2.37;;;3.10;99.90;;;;;;5021462;28;20453;-83
2022/04/19 05:38:44;;;;;;;3.10;2.80;;;;;;;;;;5023589;28;20593;-83
2022/04/19 05:41:10;;;;;;;4.27;2.40;;;3.10;99.90;;;;;;5023248;28;20242;-83
2022/04/19 05:43:36;;;;;;;5.57;2.77;;;3.40;99.90;;;;;;5023097;28;20425;-85
2022/04/19 05:46:02;;;;;;;4.90;2.63;;;3.30;99.90;;;;;;5023380;28;20182;-85
2022/04/19 05:48:28;;;;;;;3.27;2.90;;;3.30;99.90;;;;;;5023578;28;20540;-85
2022/04/19 05:50:54;;;;;;;3.07;2.63;;;3.30;99.90;;;;;;5022644;28;20445;-85
2022/04/19 05:53:20;;;;;;;3.90;2.53;;;3.40;99.90;;;;;;5023083;28;20237;-85
2022/04/19 05:55:46;;;;;;;4.60;2.70;;;3.40;99.90;;;;;;5024434;28;20217;-86
2022/04/19 05:58:12;;;;;;;4.47;3.03;;;3.40;99.90;;;;;;5023953;28;20421;-85
2022/04/19 06:00:38;;;;;;;6.27;2.80;;;3.40;99.90;;;;;;5027400;28;20763;-85
2022/04/19 06:05:48;;;;;;;3.47;2.30;;;3.50;99.90;;;;;;5028258;28;20174;-83
2022/04/19 06:08:14;;;;;;;3.80;2.53;;;3.60;99.90;;;;;;5025577;28;20943;-83
2022/04/19 06:10:40;;;;;;;4.67;2.23;;;3.80;99.90;;;;;;5024761;28;20190;-83
2022/04/19 06:13:07;;;;;;;8.03;3.03;;;4.00;99.90;;;;;;5023513;28;20265;-84
2022/04/19 06:15:32;;;;;;;3.30;2.97;;;4.20;99.90;;;;;;5024032;28;20175;-83
2022/04/19 06:17:58;;;;;;;3.63;2.43;;;4.30;99.90;;;;;;5023689;28;20422;-83
2022/04/19 06:20:25;;;;;;;2.97;2.20;;;4.30;99.90;;;;;;5023015;28;20297;-84
2022/04/19 06:22:51;;;;;;;3.80;2.40;;;4.40;99.90;;;;;;5022612;28;20186;-83
2022/04/19 06:25:17;;;;;;;3.47;2.90;;;4.50;99.90;;;;;;5023357;28;20413;-83
2022/04/19 06:27:43;;;;;;;3.20;2.30;;;4.60;99.90;;;;;;5022887;28;20175;-84
2022/04/19 06:30:09;;;;;;;3.13;2.30;;;4.70;99.90;;;;;;5027220;28;20578;-83
2022/04/19 06:32:35;;;;;;;3.20;2.90;;;4.80;99.90;;;;;;5024021;28;20207;-83
2022/04/19 06:35:01;;;;;;;3.37;2.43;;;;;;;;;;5024373;28;20243;-83
2022/04/19 06:37:29;;;;;;;2.97;2.40;;;5.10;99.90;;;;;;5023152;28;20282;-84
2022/04/19 06:39:58;;;;;;;7.27;2.53;;;5.20;99.90;;;;;;5023506;28;20270;-83
2022/04/19 06:42:24;;;;;;;5.67;2.40;;;5.40;99.90;;;;;;5023652;28;20687;-84
2022/04/19 06:44:50;;;;;;;2.70;2.23;;;5.60;99.90;;;;;;5022975;28;20182;-83
2022/04/19 06:47:16;;;;;;;4.10;2.70;;;;;;;;;;5023221;28;20168;-84
2022/04/19 06:49:42;;;;;;;2.87;2.40;;;5.80;99.90;;;;;;5023114;28;20181;-83
2022/04/19 06:52:08;;;;;;;5.70;4.43;;;5.90;99.90;;;;;;5022546;28;20231;-84
2022/04/19 06:54:34;;;;;;;13.20;9.53;;;6.10;99.90;;;;;;5022326;28;20267;-84
2022/04/19 06:56:59;;;;;;;12.47;6.37;;;6.30;99.90;;;;;;5023470;28;20285;-84
2022/04/19 06:59:25;;;;;;;4.73;3.37;;;6.50;99.90;;;;;;5022262;28;20183;-84
2022/04/19 07:01:52;;;;;;;5.27;3.27;;;6.60;99.90;;;;;;5022757;28;20225;-84
2022/04/19 07:04:17;;;;;;;3.73;2.47;;;6.80;99.90;;;;;;5022422;28;20180;-84
2022/04/19 07:06:43;;;;;;;4.20;2.80;;;;;;;;;;5021938;28;20275;-84
2022/04/19 07:09:09;;;;;;;3.23;2.67;;;7.30;99.90;;;;;;5032061;28;20194;-83
2022/04/19 07:11:37;;;;;;;2.47;2.23;;;;;;;;;;5033824;28;20568;-83
2022/04/19 07:14:03;;;;;;;4.83;2.70;;;7.70;99.90;;;;;;5024625;28;20203;-83
2022/04/19 07:16:29;;;;;;;3.73;2.80;;;;;;;;;;5024422;28;20185;-83
2022/04/19 07:18:56;;;;;;;6.93;2.60;;;;;;;;;;5024539;28;20190;-82
2022/04/19 07:26:50;;;;;;;7.43;2.60;;;8.60;99.90;;;;;;5026226;28;20244;-82
2022/04/19 07:29:18;;;;;;;3.33;2.70;;;9.00;99.90;;;;;;5025164;28;20209;-82
2022/04/19 07:31:46;;;;;;;3.27;2.53;;;9.50;99.90;;;;;;5025166;28;20222;-81
2022/04/19 07:34:12;;;;;;;4.07;3.17;;;10.20;99.90;;;;;;5025300;28;20179;-82
2022/04/19 07:36:40;;;;;;;5.17;2.53;;;10.70;99.60;;;;;;5025841;28;20179;-82
2022/04/19 07:39:13;;;;;;;4.37;3.00;;;11.10;97.30;;;;;;5025761;28;20182;-82
2022/04/19 07:41:39;;;;;;;3.80;2.60;;;11.90;94.50;;;;;;5026839;28;20257;-82
2022/04/19 07:44:06;;;;;;;4.83;2.80;;;12.20;93.80;;;;;;5025104;28;20210;-82
2022/04/19 07:46:33;;;;;;;4.07;2.80;;;12.90;91.90;;;;;;5024623;28;20238;-82
2022/04/19 07:48:59;;;;;;;3.83;2.80;;;13.60;90.50;;;;;;5023535;28;20206;-83
2022/04/19 07:51:25;;;;;;;4.53;2.90;;;;;;;;;;5022200;28;20206;-82
2022/04/19 07:53:52;;;;;;;3.33;2.20;;;15.50;82.00;;;;;;5021615;28;20250;-82
2022/04/19 07:56:18;;;;;;;4.70;2.63;;;14.90;80.30;;;;;;5022329;28;20266;-82
2022/04/19 07:58:45;;;;;;;6.77;2.60;;;15.30;77.80;;;;;;5022252;28;20566;-82
2022/04/19 08:01:11;;;;;;;3.37;2.30;;;;;;;;;;5021487;28;20214;-82
2022/04/19 08:03:37;;;;;;;5.37;2.47;;;16.20;72.50;;;;;;5022972;28;20175;-82
2022/04/19 08:06:03;;;;;;;2.50;2.00;;;16.40;67.90;;;;;;5022262;28;20345;-83
2022/04/19 08:08:29;;;;;;;3.33;2.00;;;16.00;64.60;;;;;;5020813;28;20190;-83
2022/04/19 08:10:55;;;;;;;3.77;2.20;;;16.30;67.80;;;;;;5019746;28;20211;-83
2022/04/19 08:13:20;;;;;;;2.73;2.13;;;17.10;65.40;;;;;;5021702;28;20179;-83
2022/04/19 08:15:46;;;;;;;2.40;2.20;;;18.10;60.80;;;;;;5019906;28;20202;-83
2022/04/19 08:18:14;;;;;;;3.03;2.07;;;18.10;61.60;;;;;;5021291;28;20182;-83
2022/04/19 08:20:43;;;;;;;3.60;2.27;;;18.30;59.00;;;;;;5021314;28;20232;-83
2022/04/19 08:23:13;;;;;;;4.07;2.43;;;18.60;59.80;;;;;;5019632;28;20271;-83
2022/04/19 08:25:40;;;;;;;4.03;2.20;;;18.80;59.20;;;;;;5019938;28;20525;-83
2022/04/19 08:28:07;;;;;;;1.97;1.77;;;18.90;54.60;;;;;;5019663;28;20174;-83
2022/04/19 08:30:33;;;;;;;2.53;1.93;;;19.00;54.70;;;;;;5019932;28;20181;-84
2022/04/19 08:32:59;;;;;;;2.30;1.97;;;19.10;54.20;;;;;;5020149;28;20706;-83
2022/04/19 08:35:25;;;;;;;2.73;2.07;;;19.40;53.90;;;;;;5020526;28;20214;-83
2022/04/19 08:37:51;;;;;;;5.20;2.13;;;19.60;56.00;;;;;;5019061;28;20196;-83
2022/04/19 08:40:17;;;;;;;4.10;2.40;;;19.60;55.20;;;;;;5021999;28;20181;-83
2022/04/19 08:42:44;;;;;;;3.13;2.00;;;18.30;54.70;;;;;;5021414;28;20197;-83
2022/04/19 08:45:13;;;;;;;2.90;2.27;;;18.30;57.20;;;;;;5020641;28;20179;-83
2022/04/19 08:47:47;;;;;;;3.00;2.20;;;18.60;54.80;;;;;;5020937;28;20184;-83
2022/04/19 08:50:15;;;;;;;3.63;1.87;;;18.90;56.50;;;;;;5020877;28;20173;-83
2022/04/19 08:52:41;;;;;;;1.63;1.53;;;19.20;53.20;;;;;;5021052;28;20214;-83
2022/04/19 08:57:53;;;;;;;3.90;1.77;;;16.70;52.40;;;;;;5021436;28;20237;-83
2022/04/19 09:00:23;;;;;;;1.70;1.53;;;16.70;55.30;;;;;;5021092;28;20182;-83
2022/04/19 09:02:59;;;;;;;2.07;1.73;;;17.70;54.60;;;;;;5023673;28;20212;-83
2022/04/19 09:05:26;;;;;;;2.07;1.87;;;17.70;54.30;;;;;;5027273;28;20210;-83
2022/04/19 09:07:55;;;;;;;2.20;1.60;;;18.20;56.00;;;;;;5032047;28;20185;-82
2022/04/19 09:10:32;;;;;;;2.50;1.70;;;18.30;52.30;;;;;;5034287;28;20179;-82
2022/04/19 09:13:04;;;;;;;4.53;1.80;;;18.20;50.40;;;;;;5032777;28;20175;-83
2022/04/19 09:15:38;;;;;;;1.87;1.63;;;17.90;51.00;;;;;;5026843;28;20171;-83
2022/04/19 09:18:12;;;;;;;2.00;1.50;;;17.30;51.30;;;;;;5025645;28;20178;-83
2022/04/19 09:20:39;;;;;;;2.57;1.60;;;17.00;51.80;;;;;;5025978;28;20209;-84
2022/04/19 09:23:05;;;;;;;2.40;1.83;;;17.10;53.80;;;;;;5023299;28;20179;-83
2022/04/19 09:25:32;;;;;;;2.00;1.80;;;17.40;53.60;;;;;;5021060;28;20167;-83
2022/04/19 09:27:59;;;;;;;2.33;1.80;;;17.10;52.70;;;;;;5020325;28;20630;-83
2022/04/19 09:30:32;;;;;;;2.80;1.70;;;17.10;53.90;;;;;;5020099;28;20263;-83
2022/04/19 09:33:07;;;;;;;2.53;1.90;;;17.40;54.60;;;;;;5019764;28;20660;-83
2022/04/19 09:35:47;;;;;;;2.87;1.83;;;17.20;54.10;;;;;;5021099;28;20226;-84
2022/04/19 09:38:13;;;;;;;2.10;1.60;;;16.80;53.60;;;;;;5021093;28;20213;-84
2022/04/19 09:40:45;;;;;;;2.07;1.67;;;17.10;56.20;;;;;;5019614;28;20222;-83
2022/04/19 09:43:16;;;;;;;1.60;1.47;;;17.60;56.90;;;;;;5021597;28;20502;-84
2022/04/19 09:46:02;;;;;;;2.23;1.60;;;18.00;54.80;;;;;;5020040;28;20180;-84
2022/04/19 09:48:29;;;;;;;2.03;1.83;;;18.20;54.70;;;;;;5020078;28;20179;-83
2022/04/19 09:51:09;;;;;;;3.07;1.90;;;18.20;52.30;;;;;;5021339;28;20195;-83
2022/04/19 09:53:45;;;;;;;1.73;1.63;;;17.90;53.60;;;;;;5020054;28;20175;-83
2022/04/19 09:56:16;;;;;;;3.13;1.63;;;18.00;57.60;;;;;;5020187;28;20175;-84
2022/04/19 09:58:47;;;;;;;1.87;1.67;;;18.20;55.50;;;;;;5020595;28;20171;-84
2022/04/19 10:09:31;;;;;;;3.37;1.83;;;18.70;53.00;;;;;;5022004;28;20152;-84
2022/04/19 10:11:58;;;;;;;2.87;1.80;;;18.70;54.60;;;;;;5021202;28;20571;-84
2022/04/19 10:14:24;;;;;;;2.47;1.57;;;18.40;51.90;;;;;;5019803;28;20279;-84
2022/04/19 10:16:50;;;;;;;1.80;1.40;;;18.00;50.00;;;;;;5019715;28;20207;-83
2022/04/19 10:19:17;;;;;;;1.77;1.50;;;17.80;52.90;;;;;;5021211;28;20182;-84
2022/04/19 10:21:45;;;;;;;2.00;1.63;;;18.00;54.00;;;;;;5019708;28;20689;-84
2022/04/19 10:24:11;;;;;;;3.50;1.80;;;18.10;55.80;;;;;;5024289;28;20653;-84
2022/04/19 10:26:48;;;;;;;3.53;2.00;;;18.00;52.00;;;;;;5025160;28;20176;-83
2022/04/19 10:29:17;;;;;;;2.53;1.60;;;17.40;54.40;;;;;;5024494;28;20180;-84
2022/04/19 10:31:58;;;;;;;2.77;1.80;;;17.40;55.80;;;;;;5025239;28;20195;-84
2022/04/19 10:34:26;;;;;;;1.80;1.40;;;18.10;56.40;;;;;;5024445;28;20186;-83
2022/04/19 10:36:54;;;;;;;2.00;1.57;;;18.60;52.60;;;;;;5025687;28;20197;-84
2022/04/19 10:39:33;;;;;;;2.23;1.50;;;18.70;50.70;;;;;;5024001;28;20183;-83
2022/04/19 10:42:28;;;;;;;1.53;1.43;;;18.80;52.10;;;;;;5037490;28;20203;-84
2022/04/19 10:44:55;;;;;;;1.50;1.40;;;18.50;49.90;;;;;;5028586;28;20566;-83
2022/04/19 10:47:27;;;;;;;1.77;1.57;;;17.50;51.00;;;;;;5023860;28;20191;-83
2022/04/19 10:50:33;;;;;;;3.30;1.70;;;17.60;53.50;;;;;;5023125;28;20181;-83
2022/04/19 10:53:07;;;;;;;6.53;1.67;;;18.00;54.40;;;;;;5022866;28;20537;-84
2022/04/19 10:55:33;;;;;;;2.00;1.80;;;18.50;58.20;;;;;;5025948;28;20595;-85
2022/04/19 10:58:20;;;;;;;5.90;1.60;;;19.00;53.60;;;;;;5025184;28;20173;-84
2022/04/19 11:00:48;;;;;;;1.70;1.60;;;19.30;52.70;;;;;;5023494;28;20237;-84
2022/04/19 11:03:15;;;;;;;3.37;1.50;;;19.10;53.30;;;;;;5025061;28;20180;-84
2022/04/19 11:05:44;;;;;;;1.67;1.53;;;19.00;53.70;;;;;;5024307;28;20273;-83
2022/04/19 11:08:25;;;;;;;1.47;1.30;;;18.90;51.50;;;;;;5032440;28;20176;-83
2022/04/19 11:11:06;;;;;;;2.23;1.53;;;19.20;54.00;;;;;;5032619;28;20664;-83
2022/04/19 11:13:36;;;;;;;1.70;1.60;;;19.90;51.90;;;;;;5026968;28;20292;-83
2022/04/19 11:16:06;;;;;;;1.70;1.57;;;20.00;48.90;;;;;;5023049;28;20238;-83
2022/04/19 11:18:41;;;;;;;1.40;1.30;;;18.70;50.50;;;;;;5023558;28;20180;-83
2022/04/19 11:21:11;;;;;;;2.20;1.70;;;18.80;54.30;;;;;;5023175;28;20212;-83
2022/04/19 11:23:46;;;;;;;3.20;2.00;;;18.50;50.50;;;;;;5023256;28;20187;-83
2022/04/19 11:26:30;;;;;;;2.30;1.87;;;19.20;56.00;;;;;;5022882;28;20181;-83
2022/04/19 11:29:11;;;;;;;3.10;1.80;;;20.00;55.40;;;;;;5022515;28;20255;-84
2022/04/19 11:31:42;;;;;;;1.90;1.70;;;20.70;54.70;;;;;;5022470;28;20655;-84
2022/04/19 11:34:12;;;;;;;2.63;1.73;;;20.50;53.60;;;;;;5022922;28;20193;-83
2022/04/19 11:36:38;;;;;;;3.90;1.67;;;20.80;52.60;;;;;;5023378;28;20195;-83
2022/04/19 11:39:04;;;;;;;1.60;1.50;;;20.90;52.00;;;;;;5023888;28;20230;-84
2022/04/19 11:46:51;;;;;;;2.13;1.70;;;20.30;51.50;;;;;;5026620;28;20164;-82
2022/04/19 11:49:19;;;;;;;2.00;1.50;;;20.30;50.60;;;;;;5024618;28;20177;-83
2022/04/19 11:51:46;;;;;;;1.87;1.77;;;20.60;47.70;;;;;;5023003;28;20237;-84
2022/04/19 11:54:25;;;;;;;1.80;1.60;;;20.60;48.30;;;;;;5022808;28;20201;-84
2022/04/19 11:57:12;;;;;;;2.20;1.90;;;21.20;50.40;;;;;;5022995;28;20201;-83
2022/04/19 11:59:42;;;;;;;2.00;1.47;;;22.00;46.20;;;;;;5023563;28;20193;-84
2022/04/19 12:02:19;;;;;;;2.47;1.70;;;20.90;45.50;;;;;;5021618;28;20210;-83
2022/04/19 12:04:56;;;;;;;2.10;1.87;;;20.60;47.70;;;;;;5022546;28;20197;-84
2022/04/19 12:07:24;;;;;;;2.13;1.80;;;20.60;45.10;;;;;;5022403;28;20594;-83
2022/04/19 12:09:51;;;;;;;2.37;1.83;;;20.60;45.80;;;;;;5021560;28;20226;-84
2022/04/19 12:12:18;;;;;;;2.63;2.03;;;21.10;49.20;;;;;;5021364;28;20205;-84
2022/04/19 12:14:52;;;;;;;3.53;2.00;;;21.20;46.20;;;;;;5020783;28;20186;-84
2022/04/19 12:17:20;;;;;;;7.53;2.23;;;20.40;47.20;;;;;;5020388;28;20193;-84
2022/04/19 12:19:46;;;;;;;3.23;1.80;;;20.70;47.50;;;;;;5019326;28;20182;-83
2022/04/19 12:22:18;;;;;;;3.40;1.90;;;21.10;49.70;;;;;;5020469;28;20213;-83
2022/04/19 12:24:58;;;;;;;3.20;1.93;;;20.20;49.20;;;;;;5020914;28;20580;-83
2022/04/19 12:27:24;;;;;;;2.07;1.70;;;20.90;50.30;;;;;;5021374;28;20274;-83
2022/04/19 12:30:01;;;;;;;2.10;1.90;;;21.90;50.10;;;;;;5019050;28;20631;-83
2022/04/19 12:32:48;;;;;;;3.70;1.90;;;23.10;51.30;;;;;;5020470;28;20225;-83
2022/04/19 12:35:14;;;;;;;5.33;2.37;;;23.40;46.60;;;;;;5019406;28;20186;-84
2022/04/19 12:37:40;;;;;;;3.10;1.70;;;21.40;44.90;;;;;;5021701;28;20198;-83
2022/04/19 12:40:07;;;;;;;2.83;2.10;;;19.80;47.30;;;;;;5019756;28;20630;-83
2022/04/19 12:42:53;;;;;;;3.67;1.90;;;19.70;50.30;;;;;;5020535;28;20218;-83
2022/04/19 12:45:19;;;;;;;1.90;1.73;;;20.60;47.70;;;;;;5019310;28;20630;-83
2022/04/19 12:47:47;;;;;;;3.07;2.20;;;21.20;46.30;;;;;;5020967;28;20190;-83
2022/04/19 12:50:16;;;;;;;2.07;1.87;;;21.20;46.30;;;;;;5020322;28;20186;-83
2022/04/19 12:52:42;;;;;;;3.73;2.00;;;20.50;47.00;;;;;;5020058;28;20202;-83
2022/04/19 12:55:11;;;;;;;3.20;1.90;;;20.20;49.80;;;;;;5020248;28;20208;-83
2022/04/19 12:57:40;;;;;;;2.57;2.30;;;19.10;47.00;;;;;;5021025;28;20258;-84
2022/04/19 13:00:09;;;;;;;4.00;2.50;;;18.10;49.10;;;;;;5020336;28;20235;-84
2022/04/19 13:02:38;;;;;;;2.57;2.13;;;17.60;51.40;;;;;;5018720;28;20303;-84
2022/04/19 13:05:04;;;;;;;5.63;2.00;;;17.20;51.40;;;;;;5021730;28;20174;-83
2022/04/19 13:13:05;;;;;;;2.47;2.27;;;16.80;52.50;;;;;;5036371;28;20230;-83
2022/04/19 13:15:32;;;;;;;4.30;2.50;;;18.00;50.50;;;;;;5036461;28;20170;-82
2022/04/19 13:17:58;;;;;;;2.73;2.40;;;19.00;55.00;;;;;;5027102;28;20266;-83
2022/04/19 13:20:24;;;;;;;4.20;2.80;;;20.30;51.50;;;;;;5020279;28;20207;-83
2022/04/19 13:22:49;;;;;;;4.47;2.50;;;20.50;49.70;;;;;;5020978;28;20206;-83
2022/04/19 13:25:16;;;;;;;2.93;2.50;;;21.20;48.90;;;;;;5021207;28;20178;-83
2022/04/19 13:27:42;;;;;;;3.00;2.27;;;22.30;49.10;;;;;;5019605;28;20633;-83
2022/04/19 13:30:13;;;;;;;2.93;2.10;;;23.00;45.40;;;;;;5020970;28;20230;-83
2022/04/19 13:32:39;;;;;;;3.77;2.07;;;23.20;47.60;;;;;;5020779;28;20229;-83
2022/04/19 13:35:06;;;;;;;4.37;2.27;;;21.60;43.90;;;;;;5021534;28;20238;-83
2022/04/19 13:40:17;;;;;;;3.83;2.03;;;21.00;48.80;;;;;;5022418;28;20276;-83
2022/04/19 13:42:43;;;;;;;2.63;1.90;;;22.00;47.90;;;;;;5021633;28;20302;-84
2022/04/19 13:45:09;;;;;;;3.47;1.70;;;22.60;45.80;;;;;;5022079;28;20182;-83
2022/04/19 13:47:35;;;;;;;2.43;1.80;;;23.20;44.80;;;;;;5017797;28;20548;-83
2022/04/19 13:50:01;;;;;;;2.40;1.87;;;23.70;45.70;;;;;;5019298;28;20182;-83